Time;durP1;ratioP1;P1;durP2;ratioP2;P2;SDS_P1;SDS_P2;PMS_P1;PMS_P2;Temp;Humidity;BMP_temperature;BMP_pressure;BME280_temperature;BME280_humidity;BME280_pressure;Samples;Min_cycle;Max_cycle;Signal;HPM_P1;HPM_P2
2021/05/19 00:00:23;;;;;;;1.65;1.40;;;11.50;94.80;;;;;;6251616;28;20061;-79
2021/05/19 00:03:24;;;;;;;2.60;1.20;;;11.40;94.90;;;;;;6251854;28;20142;-80
2021/05/19 00:06:26;;;;;;;2.00;1.42;;;11.40;95.10;;;;;;6250682;28;20117;-80
2021/05/19 00:09:28;;;;;;;3.92;1.20;;;11.30;95.10;;;;;;6249906;28;20045;-79
2021/05/19 00:12:29;;;;;;;1.55;1.30;;;11.30;95.30;;;;;;6251531;28;20064;-80
2021/05/19 00:15:32;;;;;;;2.85;1.33;;;11.10;95.50;;;;;;6251801;28;20072;-78
2021/05/19 00:18:33;;;;;;;6.65;2.40;;;11.10;95.80;;;;;;6253234;28;20056;-78
2021/05/19 00:21:35;;;;;;;2.00;1.90;;;11.10;96.00;;;;;;6255126;28;20044;-79
2021/05/19 00:24:36;;;;;;;3.20;1.85;;;11.00;96.30;;;;;;6252571;28;20520;-78
2021/05/19 00:27:37;;;;;;;1.85;1.20;;;11.00;96.60;;;;;;6252306;28;20089;-78
2021/05/19 00:30:40;;;;;;;3.55;1.85;;;11.00;96.90;;;;;;6251978;28;20190;-79
2021/05/19 00:33:41;;;;;;;1.88;1.60;;;10.90;97.00;;;;;;6252571;28;20055;-78
2021/05/19 00:36:43;;;;;;;3.42;1.60;;;10.90;97.00;;;;;;6251980;28;20077;-78
2021/05/19 00:39:44;;;;;;;2.45;1.45;;;10.90;97.20;;;;;;6253762;28;20104;-80
2021/05/19 00:42:46;;;;;;;3.70;1.67;;;10.90;97.40;;;;;;6255314;28;20121;-79
2021/05/19 00:45:48;;;;;;;2.03;1.67;;;10.90;97.60;;;;;;6256021;28;20045;-80
2021/05/19 00:48:49;;;;;;;2.63;1.88;;;10.80;97.80;;;;;;6254572;28;20073;-79
2021/05/19 00:51:51;;;;;;;4.68;1.75;;;10.80;98.00;;;;;;6255842;28;20049;-79
2021/05/19 00:54:52;;;;;;;2.13;1.55;;;10.80;98.00;;;;;;6252863;28;20128;-79
2021/05/19 00:57:55;;;;;;;4.03;2.25;;;10.80;98.20;;;;;;6253404;28;20073;-79
2021/05/19 01:00:57;;;;;;;1.50;1.40;;;10.80;98.30;;;;;;6253166;28;20152;-78
2021/05/19 01:03:59;;;;;;;2.90;1.90;;;10.80;98.30;;;;;;6254173;28;20109;-78
2021/05/19 01:07:03;;;;;;;1.48;1.38;;;10.70;98.50;;;;;;6254391;28;20081;-79
2021/05/19 01:10:05;;;;;;;2.28;2.13;;;10.70;98.50;;;;;;6253158;28;20643;-78
2021/05/19 01:13:06;;;;;;;1.75;1.63;;;10.60;98.70;;;;;;6252272;28;20045;-79
2021/05/19 01:16:09;;;;;;;3.97;1.90;;;10.60;99.00;;;;;;6252090;28;20076;-80
2021/05/19 01:19:14;;;;;;;2.20;1.65;;;10.50;99.20;;;;;;6253026;28;20096;-79
2021/05/19 01:22:24;;;;;;;2.65;1.80;;;10.50;99.50;;;;;;6251864;28;20575;-78
2021/05/19 01:25:26;;;;;;;2.97;2.22;;;10.40;99.80;;;;;;6252310;28;20042;-79
2021/05/19 01:28:28;;;;;;;3.42;2.08;;;10.30;99.90;;;;;;6253003;28;20060;-79
2021/05/19 01:31:29;;;;;;;3.72;1.63;;;10.30;99.90;;;;;;6252590;28;20073;-80
2021/05/19 01:34:31;;;;;;;2.38;2.17;;;10.20;99.90;;;;;;6253151;28;20052;-78
2021/05/19 01:37:33;;;;;;;4.38;1.95;;;10.20;99.90;;;;;;6253358;28;20065;-79
2021/05/19 01:40:36;;;;;;;4.13;2.35;;;10.10;99.90;;;;;;6254097;28;20100;-80
2021/05/19 01:43:38;;;;;;;2.70;2.05;;;10.10;99.90;;;;;;6254781;28;20049;-80
2021/05/19 01:46:39;;;;;;;6.30;2.20;;;10.00;99.90;;;;;;6254069;28;20108;-80
2021/05/19 01:49:43;;;;;;;2.92;2.05;;;10.00;99.90;;;;;;6253738;28;20518;-80
2021/05/19 01:52:46;;;;;;;3.08;1.98;;;10.00;99.90;;;;;;6253238;28;20073;-78
2021/05/19 01:55:48;;;;;;;3.08;2.50;;;10.00;99.90;;;;;;6254361;28;20049;-80
2021/05/19 01:58:50;;;;;;;2.17;1.90;;;9.90;99.90;;;;;;6252363;28;20128;-79
2021/05/19 02:01:51;;;;;;;2.20;2.00;;;9.90;99.90;;;;;;6254027;28;20046;-78
2021/05/19 02:04:54;;;;;;;2.30;1.92;;;9.90;99.90;;;;;;6253390;28;20046;-80
2021/05/19 02:07:56;;;;;;;2.63;2.08;;;9.80;99.90;;;;;;6253500;28;20056;-78
2021/05/19 02:10:58;;;;;;;5.50;2.28;;;9.80;99.90;;;;;;6253560;28;20046;-79
2021/05/19 02:14:00;;;;;;;3.33;1.95;;;9.80;99.90;;;;;;6254260;28;20108;-79
2021/05/19 02:17:01;;;;;;;2.97;2.78;;;9.90;99.90;;;;;;6253979;28;20079;-78
2021/05/19 02:20:08;;;;;;;2.95;2.03;;;9.90;99.90;;;;;;6253477;28;20270;-80
2021/05/19 02:23:10;;;;;;;3.25;2.88;;;10.00;99.90;;;;;;6260096;28;20054;-81
2021/05/19 02:26:11;;;;;;;2.58;2.38;;;10.00;99.90;;;;;;6261810;28;20072;-79
2021/05/19 02:29:13;;;;;;;2.28;2.05;;;10.00;99.90;;;;;;6263540;28;20049;-80
2021/05/19 02:32:14;;;;;;;4.03;2.38;;;10.00;99.90;;;;;;6253889;28;20167;-80
2021/05/19 02:35:18;;;;;;;10.52;3.05;;;10.00;99.90;;;;;;6253945;28;20410;-80
2021/05/19 02:38:20;;;;;;;2.15;1.67;;;10.00;99.90;;;;;;6253592;28;20091;-80
2021/05/19 02:41:23;;;;;;;2.40;2.20;;;10.10;99.90;;;;;;6252414;28;20065;-80
2021/05/19 02:44:24;;;;;;;5.22;2.30;;;10.10;99.90;;;;;;6252809;28;20091;-80
2021/05/19 02:47:25;;;;;;;4.88;2.03;;;10.10;99.90;;;;;;6253282;28;20126;-80
2021/05/19 02:50:27;;;;;;;3.38;2.65;;;10.10;99.90;;;;;;6252204;28;20053;-79
2021/05/19 02:53:29;;;;;;;4.22;2.05;;;10.20;99.90;;;;;;6252939;28;20069;-80
2021/05/19 02:56:30;;;;;;;2.33;2.13;;;10.20;99.90;;;;;;6252711;28;20048;-80
2021/05/19 02:59:32;;;;;;;2.58;2.35;;;10.20;99.90;;;;;;6252765;28;20080;-80
2021/05/19 03:02:34;;;;;;;5.18;2.35;;;10.30;99.90;;;;;;6253284;28;20050;-79
2021/05/19 03:05:35;;;;;;;2.63;2.05;;;10.30;99.90;;;;;;6251109;28;20450;-79
2021/05/19 03:08:37;;;;;;;3.08;2.25;;;10.30;99.90;;;;;;6250176;28;20120;-80
2021/05/19 03:11:39;;;;;;;2.35;1.95;;;10.30;99.90;;;;;;6252546;28;20083;-79
2021/05/19 03:14:40;;;;;;;2.95;2.70;;;10.30;99.90;;;;;;6251159;28;20073;-78
2021/05/19 03:17:41;;;;;;;2.80;2.22;;;10.30;99.90;;;;;;6252674;28;20049;-78
2021/05/19 03:20:43;;;;;;;2.72;2.33;;;10.20;99.90;;;;;;6252508;28;20142;-80
2021/05/19 03:23:45;;;;;;;2.22;1.90;;;10.30;99.90;;;;;;6251829;28;20471;-80
2021/05/19 03:26:47;;;;;;;3.28;2.63;;;10.20;99.90;;;;;;6253325;28;20092;-79
2021/05/19 03:29:48;;;;;;;2.47;2.00;;;10.20;99.90;;;;;;6251106;28;20090;-78
2021/05/19 03:32:49;;;;;;;2.45;2.20;;;10.20;99.90;;;;;;6252044;28;20519;-80
2021/05/19 03:35:51;;;;;;;2.35;1.95;;;10.20;99.90;;;;;;6252830;28;20049;-79
2021/05/19 03:38:54;;;;;;;2.75;1.98;;;10.20;99.90;;;;;;6251581;28;20167;-79
2021/05/19 03:41:55;;;;;;;2.63;2.28;;;10.30;99.90;;;;;;6251158;28;20041;-77
2021/05/19 03:44:56;;;;;;;3.42;2.15;;;10.30;99.90;;;;;;6251196;28;20502;-80
2021/05/19 03:47:58;;;;;;;3.38;1.95;;;10.30;99.90;;;;;;6251515;28;20088;-79
2021/05/19 03:50:59;;;;;;;3.67;2.05;;;10.30;99.90;;;;;;6251671;28;20195;-78
2021/05/19 03:54:02;;;;;;;2.63;2.42;;;10.40;99.90;;;;;;6253798;28;20088;-79
2021/05/19 03:57:04;;;;;;;5.13;2.40;;;10.40;99.90;;;;;;6256534;28;20068;-78
2021/05/19 04:00:08;;;;;;;2.13;1.60;;;10.40;99.90;;;;;;6295617;22;20133;-78
2021/05/19 04:03:10;;;;;;;2.13;1.92;;;10.50;99.90;;;;;;6278168;28;20072;-78
2021/05/19 04:06:11;;;;;;;1.88;1.52;;;10.50;99.90;;;;;;6276799;28;20098;-77
2021/05/19 04:09:13;;;;;;;4.55;2.35;;;10.70;99.90;;;;;;6275857;28;20158;-77
2021/05/19 04:12:15;;;;;;;3.28;2.35;;;10.70;99.90;;;;;;6276050;28;20075;-78
2021/05/19 04:15:17;;;;;;;1.92;1.70;;;10.80;99.70;;;;;;6276703;28;20056;-78
2021/05/19 04:18:18;;;;;;;1.83;1.58;;;10.80;99.30;;;;;;6276320;28;20092;-77
2021/05/19 04:21:19;;;;;;;2.20;2.00;;;10.80;99.10;;;;;;6275865;28;20065;-77
2021/05/19 04:24:23;;;;;;;2.85;1.33;;;10.80;99.00;;;;;;6275892;28;20124;-77
2021/05/19 04:27:24;;;;;;;3.20;1.70;;;10.90;99.10;;;;;;6276706;28;20044;-77
2021/05/19 04:30:25;;;;;;;2.88;1.90;;;10.80;99.10;;;;;;6277304;28;20127;-77
2021/05/19 04:33:27;;;;;;;3.92;2.47;;;10.90;99.00;;;;;;6275999;28;20591;-78
2021/05/19 04:36:28;;;;;;;5.65;2.35;;;10.90;99.00;;;;;;6275949;28;20172;-77
2021/05/19 04:39:31;;;;;;;2.72;2.45;;;10.90;98.80;;;;;;6275728;28;20076;-77
2021/05/19 04:42:33;;;;;;;2.83;1.88;;;10.90;98.90;;;;;;6275469;28;20132;-77
2021/05/19 04:45:34;;;;;;;3.50;2.10;;;10.90;98.70;;;;;;6275610;28;20174;-77
2021/05/19 04:48:36;;;;;;;2.78;2.47;;;10.90;98.90;;;;;;6275581;28;20571;-77
2021/05/19 04:51:37;;;;;;;4.70;2.17;;;10.90;98.80;;;;;;6276354;28;20116;-78
2021/05/19 04:54:40;;;;;;;1.63;1.33;;;10.80;98.80;;;;;;6275638;28;20127;-77
2021/05/19 04:57:42;;;;;;;2.25;2.03;;;10.80;98.90;;;;;;6274849;28;20553;-78
2021/05/19 05:00:44;;;;;;;4.00;2.20;;;10.80;98.80;;;;;;6274873;28;20051;-77
2021/05/19 05:03:45;;;;;;;2.75;2.55;;;10.80;98.90;;;;;;6275540;28;20063;-77
2021/05/19 05:06:46;;;;;;;2.85;1.85;;;10.80;99.00;;;;;;6274876;28;20075;-78
2021/05/19 05:09:49;;;;;;;3.75;3.25;;;10.80;99.10;;;;;;6275090;28;20533;-77
2021/05/19 05:12:50;;;;;;;7.28;2.58;;;10.90;99.10;;;;;;6276948;28;20586;-77
2021/05/19 05:15:51;;;;;;;5.75;2.22;;;10.90;99.10;;;;;;6279043;28;20049;-77
2021/05/19 05:18:53;;;;;;;4.45;2.78;;;11.00;99.10;;;;;;6277659;28;20072;-77
2021/05/19 05:21:54;;;;;;;4.55;2.53;;;11.10;98.90;;;;;;6278381;28;20052;-77
2021/05/19 05:24:56;;;;;;;5.82;2.40;;;11.10;98.80;;;;;;6279409;28;20073;-78
2021/05/19 05:27:58;;;;;;;3.22;2.22;;;11.20;98.60;;;;;;6277272;28;20422;-77
2021/05/19 05:30:59;;;;;;;3.33;2.20;;;11.30;98.60;;;;;;6274559;28;20139;-77
2021/05/19 05:34:01;;;;;;;5.30;3.03;;;11.30;98.10;;;;;;6274440;28;20049;-77
2021/05/19 05:37:04;;;;;;;4.05;2.20;;;11.40;98.10;;;;;;6274329;28;20076;-78
2021/05/19 05:40:08;;;;;;;3.17;2.88;;;11.40;98.10;;;;;;6274216;28;20513;-77
2021/05/19 05:43:09;;;;;;;5.95;3.35;;;11.50;97.80;;;;;;6274386;28;20044;-77
2021/05/19 05:46:11;;;;;;;6.43;3.95;;;11.50;97.50;;;;;;6274149;28;20137;-77
2021/05/19 05:49:12;;;;;;;3.85;3.40;;;11.60;98.70;;;;;;6273811;28;20059;-77
2021/05/19 05:52:13;;;;;;;3.83;3.25;;;11.80;97.10;;;;;;6275007;28;20041;-78
2021/05/19 05:55:16;;;;;;;3.50;3.20;;;11.80;96.60;;;;;;6275447;28;20473;-77
2021/05/19 05:58:17;;;;;;;6.88;4.20;;;11.90;96.30;;;;;;6273873;28;20119;-77
2021/05/19 06:01:19;;;;;;;8.38;3.70;;;11.90;95.90;;;;;;6273674;28;20045;-77
2021/05/19 06:04:20;;;;;;;4.00;2.80;;;11.90;95.70;;;;;;6263309;28;20496;-77
2021/05/19 06:07:21;;;;;;;4.35;3.00;;;11.90;95.60;;;;;;6269465;28;20076;-77
2021/05/19 06:10:24;;;;;;;5.70;3.78;;;12.00;95.60;;;;;;6272586;28;20048;-78
2021/05/19 06:13:25;;;;;;;5.15;3.30;;;12.00;95.10;;;;;;6266934;28;20518;-77
2021/05/19 06:16:26;;;;;;;4.57;3.42;;;12.00;94.80;;;;;;6248486;28;20786;-77
2021/05/19 06:19:28;;;;;;;5.75;3.60;;;11.90;95.00;;;;;;6248789;28;20060;-77
2021/05/19 06:22:29;;;;;;;4.18;3.00;;;11.90;95.30;;;;;;6247883;28;20128;-77
2021/05/19 06:25:31;;;;;;;5.32;3.35;;;11.90;95.10;;;;;;6248615;28;20080;-77
2021/05/19 06:28:33;;;;;;;4.78;2.95;;;11.90;95.00;;;;;;6248122;28;20107;-77
2021/05/19 06:31:34;;;;;;;4.38;3.50;;;12.00;95.00;;;;;;6248503;28;20570;-78
2021/05/19 06:34:37;;;;;;;6.07;3.47;;;12.20;94.90;;;;;;6248428;28;20168;-77
2021/05/19 06:37:38;;;;;;;8.27;3.53;;;12.20;94.30;;;;;;6248285;28;20045;-77
2021/05/19 06:40:40;;;;;;;5.20;4.25;;;12.30;94.30;;;;;;6267543;28;20091;-78
2021/05/19 06:43:41;;;;;;;4.32;3.80;;;12.30;94.20;;;;;;6273520;28;20064;-77
2021/05/19 06:46:44;;;;;;;6.93;3.67;;;12.20;94.00;;;;;;6272889;28;20056;-78
2021/05/19 06:49:45;;;;;;;4.18;3.67;;;12.20;94.00;;;;;;6272651;28;20045;-77
2021/05/19 06:52:47;;;;;;;6.00;4.65;;;12.20;93.90;;;;;;6272641;28;20126;-77
2021/05/19 06:55:52;;;;;;;4.40;4.00;;;12.30;93.90;;;;;;6273496;28;20055;-77
2021/05/19 06:58:53;;;;;;;5.97;4.22;;;12.30;93.90;;;;;;6272621;28;20049;-78
2021/05/19 07:01:55;;;;;;;7.63;4.57;;;12.40;93.70;;;;;;6272791;28;20051;-77
2021/05/19 07:04:56;;;;;;;4.55;4.15;;;12.50;93.20;;;;;;6265642;28;20477;-77
2021/05/19 07:07:58;;;;;;;5.60;4.93;;;12.50;92.90;;;;;;6270753;28;20132;-77
2021/05/19 07:11:00;;;;;;;6.38;4.22;;;12.60;92.70;;;;;;6273043;28;20111;-78
2021/05/19 07:14:02;;;;;;;4.70;3.97;;;13.00;92.20;;;;;;6276783;28;20076;-79
2021/05/19 07:17:03;;;;;;;4.28;3.88;;;13.70;90.10;;;;;;6272370;28;20445;-77
2021/05/19 07:20:06;;;;;;;5.70;4.35;;;14.10;87.60;;;;;;6272048;28;20057;-78
2021/05/19 07:23:08;;;;;;;5.20;4.70;;;14.20;85.80;;;;;;6272373;28;20051;-78
2021/05/19 07:26:10;;;;;;;5.88;3.75;;;14.30;85.20;;;;;;6272218;28;20072;-77
2021/05/19 07:29:12;;;;;;;4.75;4.03;;;14.30;84.30;;;;;;6271208;28;20084;-77
2021/05/19 07:32:13;;;;;;;8.07;4.18;;;14.40;83.90;;;;;;6271425;28;20542;-78
2021/05/19 07:35:15;;;;;;;5.63;3.92;;;14.70;82.50;;;;;;6271636;28;20055;-78
2021/05/19 07:38:16;;;;;;;6.03;4.18;;;14.90;81.10;;;;;;6272123;28;20550;-78
2021/05/19 07:41:19;;;;;;;3.30;3.00;;;14.70;81.70;;;;;;6271284;28;20041;-77
2021/05/19 07:44:20;;;;;;;4.03;3.55;;;14.70;82.10;;;;;;6273329;28;20052;-78
2021/05/19 07:47:21;;;;;;;4.78;3.53;;;14.90;79.90;;;;;;6272613;28;20587;-77
2021/05/19 07:50:22;;;;;;;4.97;3.30;;;14.90;78.70;;;;;;6270976;28;20068;-77
2021/05/19 07:53:24;;;;;;;6.00;4.35;;;15.00;79.20;;;;;;6271884;28;20052;-77
2021/05/19 07:56:36;;;;;;;4.95;3.30;;;15.40;78.90;;;;;;6271915;28;20133;-78
2021/05/19 07:59:38;;;;;;;4.57;3.80;;;15.90;76.50;;;;;;6271576;28;20084;-77
2021/05/19 08:02:39;;;;;;;4.40;3.28;;;16.40;74.90;;;;;;6271221;28;20087;-78
2021/05/19 08:05:41;;;;;;;6.50;2.70;;;17.10;71.80;;;;;;6270849;28;20056;-78
2021/05/19 08:08:42;;;;;;;7.35;2.55;;;17.50;67.80;;;;;;6270782;28;20529;-78
2021/05/19 08:11:44;;;;;;;4.43;2.80;;;18.00;65.30;;;;;;6271665;28;20139;-77
2021/05/19 08:14:45;;;;;;;5.97;3.53;;;18.10;65.10;;;;;;6272809;28;20470;-77
2021/05/19 08:17:47;;;;;;;5.95;2.80;;;17.70;66.10;;;;;;6270849;28;20049;-77
2021/05/19 08:20:48;;;;;;;4.45;3.30;;;17.80;67.20;;;;;;6271409;28;20045;-77
2021/05/19 08:23:49;;;;;;;3.80;2.97;;;18.50;65.40;;;;;;6271937;28;20088;-77
2021/05/19 08:26:52;;;;;;;3.92;2.95;;;18.80;62.90;;;;;;6271143;28;20114;-77
2021/05/19 08:29:53;;;;;;;5.00;2.83;;;19.00;62.00;;;;;;6271293;28;20045;-78
2021/05/19 08:32:55;;;;;;;3.88;2.60;;;19.00;61.20;;;;;;6270989;28;20056;-78
2021/05/19 08:35:56;;;;;;;6.38;3.15;;;19.00;61.00;;;;;;6271162;28;20136;-77
2021/05/19 08:38:58;;;;;;;5.15;2.22;;;19.10;59.80;;;;;;6272188;28;20064;-78
2021/05/19 08:42:01;;;;;;;2.70;2.05;;;19.30;58.50;;;;;;6275055;28;20113;-78
2021/05/19 08:45:04;;;;;;;3.17;2.05;;;19.60;57.80;;;;;;6276203;28;20131;-78
2021/05/19 08:48:07;;;;;;;3.75;2.10;;;20.00;55.30;;;;;;6275486;28;20527;-78
2021/05/19 08:51:09;;;;;;;2.00;1.40;;;20.40;53.50;;;;;;6275997;28;20047;-77
2021/05/19 08:54:10;;;;;;;2.47;1.27;;;20.70;51.60;;;;;;6275299;28;20437;-78
2021/05/19 08:57:12;;;;;;;1.48;1.30;;;20.90;50.90;;;;;;6275237;28;20068;-77
2021/05/19 09:00:15;;;;;;;2.22;1.33;;;21.00;50.40;;;;;;6274531;28;20120;-78
2021/05/19 09:03:18;;;;;;;5.32;1.20;;;21.40;48.90;;;;;;6275359;28;20063;-77
2021/05/19 09:06:21;;;;;;;1.30;1.20;;;21.90;47.30;;;;;;6274611;28;20048;-77
2021/05/19 09:09:28;;;;;;;1.67;1.33;;;22.40;45.80;;;;;;6273255;28;20049;-78
2021/05/19 09:12:35;;;;;;;4.72;1.15;;;22.90;44.20;;;;;;6275053;28;20550;-77
2021/05/19 09:15:46;;;;;;;3.75;1.63;;;23.20;43.80;;;;;;6275471;28;20191;-78
2021/05/19 09:18:50;;;;;;;3.35;1.85;;;23.70;43.30;;;;;;6273986;28;20045;-78
2021/05/19 09:21:52;;;;;;;3.53;1.75;;;24.00;42.30;;;;;;6274375;28;20122;-78
2021/05/19 09:24:54;;;;;;;2.08;0.95;;;24.10;41.90;;;;;;6275011;28;20068;-78
2021/05/19 09:27:59;;;;;;;4.47;1.25;;;24.10;40.40;;;;;;6274353;28;20136;-78
2021/05/19 09:31:00;;;;;;;4.38;0.90;;;24.30;40.80;;;;;;6275187;28;20407;-78
2021/05/19 09:34:01;;;;;;;3.50;1.15;;;24.40;40.10;;;;;;6281557;28;20095;-78
2021/05/19 09:37:22;;;;;;;3.20;1.05;;;24.10;39.70;;;;;;6275498;28;20041;-78
2021/05/19 09:40:23;;;;;;;3.05;1.25;;;23.90;40.10;;;;;;6276672;28;20052;-77
2021/05/19 09:43:33;;;;;;;4.13;0.88;;;23.60;39.70;;;;;;6276674;28;20108;-78
2021/05/19 09:46:37;;;;;;;2.00;0.98;;;23.70;40.50;;;;;;6275939;28;20517;-78
2021/05/19 09:49:38;;;;;;;2.80;1.30;;;23.50;41.20;;;;;;6276135;28;20064;-78
2021/05/19 09:52:40;;;;;;;2.63;1.48;;;23.00;41.70;;;;;;6274939;28;20086;-78
2021/05/19 09:56:02;;;;;;;2.85;1.10;;;22.50;41.40;;;;;;6275705;28;20049;-78
2021/05/19 09:59:19;;;;;;;1.45;0.82;;;21.50;42.70;;;;;;6269410;28;20081;-77
2021/05/19 10:02:24;;;;;;;2.95;1.40;;;20.90;44.20;;;;;;6268961;28;20164;-77
2021/05/19 10:05:29;;;;;;;1.35;0.93;;;20.70;44.40;;;;;;6273637;28;20163;-78
2021/05/19 10:08:30;;;;;;;2.42;0.85;;;20.40;45.70;;;;;;6266640;28;20076;-77
2021/05/19 10:11:32;;;;;;;1.60;1.08;;;20.60;44.60;;;;;;6273624;28;20178;-77
2021/05/19 10:14:36;;;;;;;2.42;1.02;;;20.90;43.70;;;;;;6273443;28;20118;-78
2021/05/19 10:17:40;;;;;;;3.92;1.50;;;21.10;43.10;;;;;;6273347;28;20131;-77
2021/05/19 10:20:45;;;;;;;3.78;1.10;;;21.10;43.10;;;;;;6272883;28;20068;-76
2021/05/19 10:24:01;;;;;;;2.63;1.00;;;20.70;44.00;;;;;;6273764;28;20534;-78
2021/05/19 10:27:04;;;;;;;1.00;0.80;;;20.80;44.40;;;;;;6273455;28;20045;-77
2021/05/19 10:30:08;;;;;;;4.32;1.98;;;21.00;44.60;;;;;;6272248;28;20479;-77
2021/05/19 10:33:43;;;;;;;1.85;1.10;;;21.30;44.50;;;;;;6272518;28;20040;-77
2021/05/19 10:36:45;;;;;;;5.97;1.35;;;21.40;43.70;;;;;;6272937;28;20132;-77
2021/05/19 10:39:46;;;;;;;2.72;1.20;;;21.60;43.50;;;;;;6272781;28;20049;-77
2021/05/19 10:42:53;;;;;;;1.05;0.55;;;21.80;42.40;;;;;;6273765;28;20064;-78
2021/05/19 10:45:58;;;;;;;2.03;1.60;;;22.10;41.90;;;;;;6273863;28;20049;-78
2021/05/19 10:49:00;;;;;;;2.70;1.00;;;22.10;42.50;;;;;;6273453;28;20340;-77
2021/05/19 10:52:12;;;;;;;3.45;0.93;;;21.80;43.00;;;;;;6272578;28;20056;-78
2021/05/19 10:58:37;;;;;;;6.00;1.48;;;21.60;42.60;;;;;;6271656;28;20049;-78
2021/05/19 11:01:58;;;;;;;2.80;0.70;;;21.80;42.60;;;;;;6271657;28;20040;-77
2021/05/19 11:05:12;;;;;;;2.83;0.80;;;22.10;42.50;;;;;;6271849;28;20427;-76
2021/05/19 11:08:24;;;;;;;4.55;0.82;;;22.30;41.10;;;;;;6269145;28;20128;-76
2021/05/19 11:11:29;;;;;;;2.75;1.27;;;22.40;41.80;;;;;;6265722;28;20085;-75
2021/05/19 11:14:32;;;;;;;2.60;0.70;;;22.70;40.70;;;;;;6271754;28;20111;-76
2021/05/19 11:17:44;;;;;;;2.63;0.85;;;22.90;40.40;;;;;;6271926;28;20449;-78
2021/05/19 11:20:45;;;;;;;1.85;0.85;;;23.20;39.70;;;;;;6271499;28;20099;-76
2021/05/19 11:24:00;;;;;;;3.38;1.00;;;23.40;39.70;;;;;;6272162;28;20554;-78
2021/05/19 11:27:02;;;;;;;5.40;1.02;;;23.40;39.70;;;;;;6272483;28;20111;-76
2021/05/19 11:30:05;;;;;;;1.55;1.08;;;23.40;39.60;;;;;;6271797;28;20083;-77
2021/05/19 11:33:10;;;;;;;3.80;1.35;;;23.20;38.50;;;;;;6273628;28;20056;-78
2021/05/19 11:36:11;;;;;;;2.22;0.88;;;22.90;39.60;;;;;;6276095;28;20048;-78
2021/05/19 11:39:32;;;;;;;1.15;0.70;;;22.60;40.70;;;;;;6275090;28;20502;-78
2021/05/19 11:42:33;;;;;;;6.10;0.73;;;22.80;40.50;;;;;;6272642;28;20095;-78
2021/05/19 11:45:35;;;;;;;1.23;0.90;;;22.90;40.50;;;;;;6271828;28;20410;-77
2021/05/19 11:48:38;;;;;;;2.58;0.98;;;22.90;39.90;;;;;;6273046;28;20594;-78
2021/05/19 11:51:44;;;;;;;0.85;0.65;;;22.80;39.00;;;;;;6274682;28;20045;-78
2021/05/19 11:54:45;;;;;;;2.45;0.95;;;22.70;39.10;;;;;;6275731;28;20075;-78
2021/05/19 11:57:46;;;;;;;3.83;1.40;;;22.40;40.10;;;;;;6274436;28;20077;-78
2021/05/19 12:00:50;;;;;;;5.68;0.98;;;22.30;39.30;;;;;;6274801;28;20218;-77
2021/05/19 12:03:52;;;;;;;1.67;0.80;;;22.30;40.50;;;;;;6295579;28;20080;-78
2021/05/19 12:06:53;;;;;;;3.85;0.70;;;22.30;39.10;;;;;;6302198;28;20029;-77
2021/05/19 12:10:08;;;;;;;4.50;0.85;;;22.30;39.00;;;;;;6293296;28;20042;-78
2021/05/19 12:13:09;;;;;;;2.65;1.00;;;22.10;39.60;;;;;;6301789;28;20044;-78
2021/05/19 12:16:16;;;;;;;7.28;1.08;;;22.00;40.30;;;;;;6291823;28;20044;-77
2021/05/19 12:19:25;;;;;;;1.95;0.70;;;21.80;41.80;;;;;;6278271;28;20537;-77
2021/05/19 12:22:27;;;;;;;1.60;0.77;;;22.10;41.20;;;;;;6278416;28;20102;-77
2021/05/19 12:25:29;;;;;;;2.03;0.55;;;22.40;40.00;;;;;;6278385;28;20140;-77
2021/05/19 12:28:30;;;;;;;1.58;0.75;;;22.70;39.20;;;;;;6276582;28;20578;-78
2021/05/19 12:31:33;;;;;;;3.45;1.25;;;22.70;39.50;;;;;;6279916;28;20552;-78
2021/05/19 12:34:36;;;;;;;1.40;0.70;;;22.30;40.00;;;;;;6276327;28;20086;-78
2021/05/19 12:37:40;;;;;;;1.27;0.57;;;22.10;41.10;;;;;;6276943;28;20135;-77
2021/05/19 12:40:45;;;;;;;6.70;1.02;;;22.10;41.40;;;;;;6275731;28;20108;-78
2021/05/19 12:43:46;;;;;;;6.43;3.95;;;22.10;40.80;;;;;;6279537;28;20560;-78
2021/05/19 12:46:58;;;;;;;21.52;19.02;;;21.90;41.00;;;;;;6277853;28;20075;-79
2021/05/19 12:50:04;;;;;;;13.02;2.47;;;21.70;41.20;;;;;;6277389;28;20136;-79
2021/05/19 12:53:06;;;;;;;13.07;10.43;;;21.40;41.90;;;;;;6275471;28;20098;-77
2021/05/19 12:56:11;;;;;;;3.35;2.92;;;20.90;45.00;;;;;;6275091;28;20080;-78
2021/05/19 12:59:12;;;;;;;4.82;2.28;;;20.40;48.00;;;;;;6277236;28;20144;-79
2021/05/19 13:02:14;;;;;;;2.22;1.40;;;20.00;50.70;;;;;;6278302;28;20041;-78
2021/05/19 13:05:21;;;;;;;1.27;0.82;;;19.50;53.10;;;;;;6281030;28;20109;-79
2021/05/19 13:08:23;;;;;;;2.40;1.17;;;19.10;55.30;;;;;;6278178;28;20069;-79
2021/05/19 13:11:25;;;;;;;2.00;1.40;;;18.60;60.50;;;;;;6274368;28;20052;-78
2021/05/19 13:14:31;;;;;;;2.35;2.08;;;17.90;64.60;;;;;;6279382;28;20079;-78
2021/05/19 13:17:34;;;;;;;2.63;1.13;;;17.40;67.10;;;;;;6279449;28;20094;-78
2021/05/19 13:20:47;;;;;;;1.77;1.35;;;17.00;67.70;;;;;;6277902;28;20044;-78
2021/05/19 13:23:49;;;;;;;2.47;1.40;;;16.60;68.50;;;;;;6277894;28;20041;-78
2021/05/19 13:26:56;;;;;;;2.88;1.67;;;16.30;68.30;;;;;;6275026;28;20076;-78
2021/05/19 13:30:02;;;;;;;2.47;1.88;;;15.90;70.80;;;;;;6276895;28;20119;-78
2021/05/19 13:33:16;;;;;;;1.42;1.13;;;15.60;71.70;;;;;;6276346;28;20558;-78
2021/05/19 13:36:36;;;;;;;1.55;1.05;;;15.30;72.30;;;;;;6277005;28;20051;-78
2021/05/19 13:39:37;;;;;;;3.38;0.90;;;15.10;72.90;;;;;;6280203;28;20517;-78
2021/05/19 13:42:39;;;;;;;4.63;1.17;;;15.00;73.30;;;;;;6281976;28;20041;-78
2021/05/19 13:45:40;;;;;;;7.00;1.42;;;14.90;74.20;;;;;;6279690;28;20084;-77
2021/05/19 13:48:42;;;;;;;1.35;1.00;;;15.00;73.90;;;;;;6277923;28;20103;-77
2021/05/19 13:51:46;;;;;;;3.72;1.33;;;15.10;73.50;;;;;;6280276;28;20095;-77
2021/05/19 13:54:49;;;;;;;4.43;1.25;;;15.10;73.50;;;;;;6276258;28;20701;-77
2021/05/19 13:57:50;;;;;;;3.10;1.20;;;15.20;73.80;;;;;;6273807;28;20423;-77
2021/05/19 14:00:52;;;;;;;1.63;0.75;;;15.20;73.30;;;;;;6273363;28;20122;-77
2021/05/19 14:03:53;;;;;;;3.38;1.05;;;15.10;73.30;;;;;;6274670;28;20124;-77
2021/05/19 14:06:57;;;;;;;1.48;1.05;;;15.10;73.00;;;;;;6273663;28;20502;-77
2021/05/19 14:09:58;;;;;;;3.03;1.92;;;15.10;73.20;;;;;;6273245;28;20071;-77
2021/05/19 14:13:05;;;;;;;1.10;1.00;;;15.10;71.60;;;;;;6267492;28;20132;-78
2021/05/19 14:16:18;;;;;;;3.92;0.70;;;15.20;70.80;;;;;;6273133;28;20084;-77
2021/05/19 14:29:18;;;;;;;1.85;0.90;;;16.00;68.30;;;;;;6272661;28;20048;-78
2021/05/19 14:32:21;;;;;;;0.85;0.70;;;16.30;68.10;;;;;;6274962;28;20124;-77
2021/05/19 14:35:45;;;;;;;1.67;1.00;;;16.50;66.70;;;;;;6272943;28;20076;-77
2021/05/19 15:02:17;;;;;;;2.97;2.58;;;16.60;61.90;;;;;;6256201;28;20052;-77
2021/05/19 15:05:18;;;;;;;0.65;0.60;;;16.60;62.70;;;;;;6271724;28;20186;-77
2021/05/19 15:08:19;;;;;;;6.85;6.40;;;16.90;62.20;;;;;;6271549;28;20069;-78
2021/05/19 15:11:21;;;;;;;1.10;1.00;;;17.20;59.90;;;;;;6272470;28;20080;-78
2021/05/19 15:14:23;;;;;;;0.63;0.57;;;17.30;58.90;;;;;;6262838;28;20163;-77
2021/05/19 15:17:24;;;;;;;0.52;0.50;;;17.10;59.30;;;;;;6246978;28;20065;-77
2021/05/19 15:20:26;;;;;;;1.85;0.80;;;17.00;58.90;;;;;;6247448;28;20061;-77
2021/05/19 15:23:28;;;;;;;1.73;0.50;;;16.90;59.00;;;;;;6248042;28;20129;-77
2021/05/19 15:26:30;;;;;;;0.82;0.75;;;16.80;60.20;;;;;;6246658;28;20498;-77
2021/05/19 15:29:31;;;;;;;4.05;1.40;;;16.90;60.40;;;;;;6246548;28;20429;-78
2021/05/19 15:32:33;;;;;;;2.05;0.93;;;17.00;59.40;;;;;;6246644;28;20044;-77
2021/05/19 15:35:34;;;;;;;0.80;0.80;;;16.90;58.90;;;;;;6247799;28;20056;-77
2021/05/19 15:38:36;;;;;;;1.50;1.00;;;16.80;59.40;;;;;;6246942;28;20132;-77
2021/05/19 15:41:39;;;;;;;2.17;1.13;;;16.60;60.20;;;;;;6246812;28;20422;-77
2021/05/19 15:44:40;;;;;;;1.15;0.80;;;16.30;60.90;;;;;;6246598;28;20132;-78
2021/05/19 15:47:41;;;;;;;0.98;0.77;;;16.00;61.60;;;;;;6246837;28;20134;-77
2021/05/19 15:50:43;;;;;;;3.15;1.08;;;15.80;62.60;;;;;;6245861;28;20057;-77
2021/05/19 15:53:44;;;;;;;1.00;0.77;;;15.70;63.50;;;;;;6246277;28;20045;-77
2021/05/19 15:56:47;;;;;;;1.73;0.85;;;15.50;63.90;;;;;;6247335;28;20042;-77
2021/05/19 15:59:48;;;;;;;6.68;0.90;;;15.30;65.00;;;;;;6248087;28;20138;-77
2021/05/19 16:02:49;;;;;;;1.20;0.90;;;15.20;65.20;;;;;;6286202;22;20021;-81
2021/05/19 16:05:51;;;;;;;2.08;0.70;;;15.00;65.30;;;;;;6279513;28;20049;-80
2021/05/19 16:08:52;;;;;;;2.13;1.17;;;14.90;65.40;;;;;;6279182;28;20069;-80
2021/05/19 16:11:56;;;;;;;4.35;0.80;;;14.90;65.50;;;;;;6279354;28;20068;-80
2021/05/19 16:14:58;;;;;;;1.60;0.70;;;15.00;65.70;;;;;;6258000;28;20053;-81
2021/05/19 16:18:00;;;;;;;0.50;0.50;;;15.10;63.90;;;;;;6255549;28;20045;-79
2021/05/19 16:21:02;;;;;;;1.30;1.20;;;15.30;62.30;;;;;;6254259;28;20064;-81
2021/05/19 16:24:04;;;;;;;0.57;0.40;;;15.60;61.10;;;;;;6254104;28;20506;-82
2021/05/19 16:27:07;;;;;;;0.57;0.57;;;15.70;60.30;;;;;;6255386;28;20479;-82
2021/05/19 16:30:46;;;;;;;0.70;0.70;;;15.90;59.80;;;;;;6255632;28;20100;-81